Latest Weather Observations for Middle Point

IDD60901

Issued at 6:51 am CST Wednesday 3 June 2020 (issued every 10 minutes, with the page automatically refreshed every 10 minutes)

About weather observations | Map of Darwin area stations | Latest observations for Darwin area | Other Formats
Station Details ID: 014041 Name: MIDDLE POINT Lat: -12.61 Lon: 131.30 Height: 14.1 m
Data from the previous 72 hours. | See also: Recent months at Middle Point
Date/Time
CST
Temp
°C
App
Temp
°C
Dew
Point
°C
Rel
Hum
%
Delta-T
°C
Wind Press
QNH
hPa
Press
MSL
hPa
Rain since
9am
mm
Dir  Spd
km/h
Gust
km/h
Spd
kts
Gust
kts
03/06:30am 15.7 14.7 12.3 80 1.9 S 9 13 5 7 1017.1 1017.0 0.0
03/06:00am 14.9 13.9 12.2 84 1.5 S 9 13 5 7 1016.6 1016.5 0.0
03/05:30am 13.3 13.9 12.0 92 0.7 CALM 0 2 0 1 1016.2 1016.1 0.0
03/05:00am 14.1 14.7 12.0 87 1.1 CALM 0 0 0 0 1016.0 1015.9 0.0
03/04:30am 15.6 15.3 11.6 77 2.2 SSE 4 6 2 3 1015.9 1015.8 0.0
03/04:00am 16.3 16.5 11.7 74 2.5 S 2 4 1 2 1015.9 1015.8 0.0
03/03:30am 18.6 18.4 11.9 65 3.7 SE 4 7 2 4 1015.9 1015.8 0.0
03/03:00am 18.7 18.1 12.2 66 3.6 SE 7 9 4 5 1015.9 1015.8 0.0
03/02:30am 19.3 17.8 11.8 62 4.1 ESE 11 13 6 7 1015.9 1015.8 0.0
03/02:00am 19.5 18.0 12.0 62 4.2 ESE 11 15 6 8 1016.1 1016.0 0.0
03/01:30am 20.2 18.8 12.2 60 4.5 ESE 11 15 6 8 1016.3 1016.2 0.0
03/01:00am 20.5 19.2 12.5 60 4.5 ESE 11 13 6 7 1016.4 1016.3 0.0
03/12:30am 21.1 20.6 12.8 59 4.7 ESE 7 11 4 6 1016.5 1016.4 0.0
03/12:00am 21.3 20.8 13.7 62 4.4 SE 9 9 5 5 1016.6 1016.5 0.0
 
Date/Time
CST
Temp
°C
App
Temp
°C
Dew
Point
°C
Rel
Hum
%
Delta-T
°C
Wind Press
QNH
hPa
Press
MSL
hPa
Rain since
9am
mm
Dir  Spd
km/h
Gust
km/h
Spd
kts
Gust
kts
02/11:30pm 18.2 18.5 14.9 81 1.9 SE 7 9 4 5 1016.8 1016.7 0.0
02/11:00pm 18.1 18.4 14.6 80 2.0 SSE 6 6 3 3 1016.8 1016.7 0.0
02/10:30pm 19.4 19.9 15.1 76 2.5 SSE 6 7 3 4 1016.7 1016.6 0.0
02/10:00pm 20.6 21.4 14.7 69 3.5 SE 4 4 2 2 1016.4 1016.3 0.0
02/09:30pm 22.2 22.4 14.6 62 4.5 SSE 7 9 4 5 1016.0 1015.9 0.0
02/09:00pm 24.0 24.1 14.4 55 5.7 SE 7 11 4 6 1015.7 1015.6 0.0
02/08:30pm 23.9 23.9 14.3 55 5.7 SE 7 7 4 4 1015.3 1015.2 0.0
02/08:00pm 25.1 24.5 13.6 49 6.7 SE 9 11 5 6 1014.7 1014.6 0.0
02/07:30pm 25.9 25.2 14.4 49 6.9 ESE 11 13 6 7 1014.2 1014.1 0.0
02/07:00pm 26.3 26.1 14.7 48 7.0 ESE 9 13 5 7 1013.9 1013.8 0.0
02/06:30pm 27.1 27.3 14.8 47 7.4 SE 7 11 4 6 1013.5 1013.4 0.0
02/06:00pm 29.7 28.9 13.9 38 9.5 ESE 11 15 6 8 1012.9 1012.8 0.0
02/05:30pm 31.6 29.7 12.9 32 11.2 E 15 22 8 12 1012.5 1012.4 0.0
02/05:00pm 32.8 30.5 12.9 29 11.9 E 17 24 9 13 1012.0 1011.9 0.0
02/04:30pm 33.3 30.4 12.3 28 12.5 E 19 30 10 16 1011.8 1011.7 0.0
02/04:00pm 33.8 30.7 12.2 27 12.9 E 20 32 11 17 1011.8 1011.7 0.0
02/03:30pm 34.1 31.2 13.0 28 12.7 E 20 35 11 19 1012.0 1011.9 0.0
02/03:00pm 33.6 30.2 12.6 28 12.6 E 22 32 12 17 1012.2 1012.1 0.0
02/02:30pm 33.6 30.0 13.1 29 12.4 E 24 35 13 19 1012.5 1012.4 0.0
02/02:00pm 33.1 29.0 12.7 29 12.2 E 26 39 14 21 1012.9 1012.8 0.0
02/01:30pm 33.2 29.7 13.3 30 12.0 E 24 33 13 18 1013.5 1013.4 0.0
02/01:00pm 33.2 29.5 13.8 31 11.8 E 26 37 14 20 1014.1 1014.0 0.0
02/12:30pm 32.3 29.2 14.4 33 10.9 ESE 24 35 13 19 1014.5 1014.4 0.0
02/12:00pm 31.8 29.8 16.5 39 9.6 E 22 30 12 16 1015.0 1014.9 0.0
02/11:30am 31.4 30.3 17.7 44 8.8 ESE 20 30 11 16 1015.7 1015.6 0.0
02/11:00am 30.0 29.6 18.1 49 7.6 ESE 17 24 9 13 1016.1 1016.0 0.0
02/10:30am 29.2 30.5 20.1 58 6.0 ESE 13 19 7 10 1016.2 1016.1 0.0
02/10:00am 28.1 29.3 19.9 61 5.4 E 13 17 7 9 1016.4 1016.3 0.0
02/09:30am 27.0 28.6 20.8 69 4.1 E 13 17 7 9 1016.4 1016.3 0.0
02/09:00am 25.6 29.1 22.1 81 2.3 E 7 13 4 7 1016.2 1016.1 0.0
02/08:30am 23.3 27.9 22.5 95 0.5 S 2 6 1 3 1016.0 1015.9 0.0
02/08:00am 20.8 24.5 20.8 100 0.0 S 2 4 1 2 1015.7 1015.6 0.0
02/07:30am 18.4 21.0 18.4 100 0.0 S 2 2 1 1 1015.3 1015.2 0.0
02/07:00am 18.1 20.6 18.1 100 0.0 S 2 2 1 1 1014.8 1014.7 0.0
02/06:30am 17.7 19.5 17.5 99 0.1 S 4 4 2 2 1014.6 1014.5 0.0
02/06:00am 17.9 20.2 17.6 98 0.2 NNE 2 4 1 2 1014.5 1014.4 0.0
02/05:30am 18.4 21.2 17.9 97 0.3 CALM 0 0 0 0 1014.2 1014.1 0.0
02/05:00am 18.8 21.8 18.5 98 0.2 CALM 0 0 0 0 1014.0 1013.9 0.0
02/04:30am 18.8 21.9 18.6 99 0.1 CALM 0 0 0 0 1013.7 1013.6 0.0
02/04:00am 18.7 21.6 18.2 97 0.3 CALM 0 0 0 0 1013.8 1013.7 0.0
02/03:30am 19.1 22.0 18.1 94 0.6 CALM 0 0 0 0 1013.8 1013.7 0.0
02/03:00am 19.9 23.1 18.9 94 0.6 CALM 0 0 0 0 1014.0 1013.9 0.0
02/02:30am 20.1 23.6 19.6 97 0.3 CALM 0 0 0 0 1014.1 1014.0 0.0
02/02:00am 19.6 22.8 18.8 95 0.5 CALM 0 0 0 0 1014.3 1014.2 0.0
02/01:30am 19.7 23.0 19.0 96 0.4 CALM 0 0 0 0 1014.5 1014.4 0.0
02/01:00am 20.0 23.4 19.3 96 0.4 CALM 0 0 0 0 1014.6 1014.5 0.0
02/12:30am 20.0 23.4 19.3 96 0.4 CALM 0 0 0 0 1014.7 1014.6 0.0
02/12:00am 20.3 23.4 18.6 90 1.1 CALM 0 0 0 0 1014.9 1014.8 0.0
 
Date/Time
CST
Temp
°C
App
Temp
°C
Dew
Point
°C
Rel
Hum
%
Delta-T
°C
Wind Press
QNH
hPa
Press
MSL
hPa
Rain since
9am
mm
Dir  Spd
km/h
Gust
km/h
Spd
kts
Gust
kts
01/11:30pm 20.8 24.3 19.5 92 0.8 CALM 0 0 0 0 1015.1 1015.0 0.0
01/11:00pm 21.0 24.6 19.7 92 0.8 CALM 0 2 0 1 1015.1 1015.0 0.0
01/10:30pm 21.6 25.2 19.7 89 1.2 CALM 0 0 0 0 1014.9 1014.8 0.0
01/10:00pm 22.6 26.5 20.3 87 1.5 CALM 0 0 0 0 1014.8 1014.7 0.0
01/09:30pm 22.6 25.5 19.9 85 1.7 WSW 4 6 2 3 1014.7 1014.6 0.0
01/09:00pm 22.8 25.1 19.8 83 1.9 WSW 7 7 4 4 1014.5 1014.4 0.0
01/08:30pm 23.0 25.5 19.8 82 2.1 W 6 7 3 4 1014.1 1014.0 0.0
01/08:00pm 23.0 25.2 19.6 81 2.2 WNW 7 9 4 5 1013.7 1013.6 0.0
01/07:30pm 25.3 28.3 20.8 76 3.0 N 6 6 3 3 1013.2 1013.1 0.0
01/07:00pm 26.0 28.7 20.3 71 3.7 N 6 7 3 4 1012.9 1012.8 0.0
01/06:30pm 27.7 29.9 20.5 65 4.7 N 9 11 5 6 1012.6 1012.5 0.0
01/06:00pm 29.6 31.1 20.5 58 6.0 N 13 19 7 10 1012.2 1012.1 0.0
01/05:30pm 32.2 32.9 18.8 45 8.7 NNE 13 17 7 9 1011.9 1011.8 0.0
01/05:00pm 33.8 33.4 15.3 33 11.5 NE 11 17 6 9 1011.6 1011.5 0.0
01/04:30pm 34.4 34.0 15.3 31 11.9 E 11 19 6 10 1011.6 1011.5 0.0
01/04:00pm 34.6 33.6 15.5 32 12.0 E 15 26 8 14 1011.7 1011.6 0.0
01/03:30pm 34.6 34.3 15.5 32 12.0 ENE 11 20 6 11 1011.8 1011.7 0.0
01/03:00pm 34.1 33.8 16.5 35 11.2 E 13 20 7 11 1012.2 1012.1 0.0
01/02:30pm 34.0 32.7 16.8 35 11.0 ESE 19 28 10 15 1012.7 1012.6 0.0
01/02:00pm 33.7 32.1 16.1 34 11.1 ESE 19 30 10 16 1013.0 1012.9 0.0
01/01:30pm 33.5 32.7 17.2 37 10.4 E 17 24 9 13 1013.5 1013.4 0.0
01/01:00pm 33.7 34.0 17.8 38 10.3 E 13 20 7 11 1014.1 1014.0 0.0
01/12:30pm 32.4 34.5 19.3 46 8.6 ESE 7 13 4 7 1014.6 1014.5 0.0
01/12:00pm 32.5 34.0 19.7 46 8.4 NE 11 32 6 17 1015.1 1015.0 0.0
01/11:30am 31.7 32.0 18.7 46 8.4 NE 15 22 8 12 1015.5 1015.4 0.0
01/11:00am 30.5 32.6 20.1 53 6.9 NNE 9 15 5 8 1015.8 1015.7 0.0
01/10:30am 29.5 32.1 21.2 61 5.5 NE 9 15 5 8 1016.2 1016.1 0.0
01/10:00am 28.9 30.8 21.4 64 5.0 NE 13 19 7 10 1016.4 1016.3 0.0
01/09:30am 27.9 31.3 21.0 66 4.6 ESE 4 9 2 5 1016.5 1016.4 0.0
01/09:00am 26.3 30.8 21.5 75 3.2 CALM 0 4 0 2 1016.4 1016.3 0.0
01/08:30am 23.4 28.2 22.2 93 0.8 CALM 0 0 0 0 1016.1 1016.0 0.0
01/08:00am 20.6 24.6 20.6 100 0.0 CALM 0 2 0 1 1015.8 1015.7 0.0
01/07:30am 18.0 20.4 18.0 100 0.0 NE 2 6 1 3 1015.4 1015.3 0.0
01/07:00am 17.4 19.9 17.2 99 0.1 CALM 0 0 0 0 1015.0 1014.9 0.0
01/06:30am 17.6 19.8 17.4 99 0.1 ENE 2 4 1 2 1014.6 1014.5 0.0
01/06:00am 17.7 20.3 17.4 98 0.2 CALM 0 0 0 0 1014.3 1014.2 0.0
01/05:30am 17.9 20.5 17.6 98 0.2 CALM 0 0 0 0 1014.2 1014.1 0.0
01/05:00am 18.6 21.7 18.6 100 0.0 CALM 0 0 0 0 1014.2 1014.1 0.0
01/04:30am 18.6 21.7 18.6 100 0.0 CALM 0 0 0 0 1014.0 1013.9 0.0
01/04:00am 18.8 22.0 18.8 100 0.0 CALM 0 0 0 0 1013.9 1013.8 0.0
01/03:30am 18.8 21.9 18.6 99 0.1 CALM 0 0 0 0 1013.8 1013.7 0.0
01/03:00am 18.6 21.3 17.8 95 0.5 CALM 0 0 0 0 1014.0 1013.9 0.0
01/02:30am 20.3 23.5 19.8 97 0.3 SE 2 2 1 1 1014.1 1014.0 0.0
01/02:00am 20.7 24.0 19.9 95 0.5 SW 2 4 1 2 1014.2 1014.1 0.0
01/01:30am 21.3 25.3 20.6 96 0.5 CALM 0 0 0 0 1014.3 1014.2 0.0
01/01:00am 21.3 23.8 20.3 94 0.6 SW 7 9 4 5 1014.4 1014.3 0.0
01/12:30am 21.8 25.5 21.5 98 0.2 WSW 4 4 2 2 1014.5 1014.4 0.0
01/12:00am 21.5 25.3 21.0 97 0.3 WSW 2 4 1 2 1014.6 1014.5 0.0
 
Date/Time
CST
Temp
°C
App
Temp
°C
Dew
Point
°C
Rel
Hum
%
Delta-T
°C
Wind Press
QNH
hPa
Press
MSL
hPa
Rain since
9am
mm
Dir  Spd
km/h
Gust
km/h
Spd
kts
Gust
kts
31/11:30pm 21.9 25.3 20.9 94 0.7 WSW 4 6 2 3 1014.8 1014.7 0.0
31/11:00pm 22.0 24.7 20.6 92 0.9 WSW 7 9 4 5 1015.0 1014.9 0.0
31/10:30pm 22.2 24.8 20.5 90 1.1 WSW 7 7 4 4 1014.9 1014.8 0.0
31/10:00pm 22.7 25.6 21.0 90 1.1 WSW 7 9 4 5 1014.9 1014.8 0.0
31/09:30pm 22.6 24.8 20.3 87 1.5 WSW 9 9 5 5 1014.9 1014.8 0.0
31/09:00pm 22.0 23.6 19.2 84 1.8 W 9 9 5 5 1014.8 1014.7 0.0
31/08:30pm 22.6 25.1 19.8 84 1.8 W 6 9 3 5 1014.6 1014.5 0.0
31/08:00pm 24.1 27.0 19.8 77 2.8 NNW 4 4 2 2 1014.4 1014.3 0.0
31/07:30pm 24.5 27.4 19.8 75 3.0 NNW 4 6 2 3 1014.0 1013.9 0.0
31/07:00pm 26.1 28.3 19.5 67 4.3 N 7 9 4 5 1013.6 1013.5 0.0
31/06:30pm 27.8 29.2 19.6 61 5.3 NNE 11 13 6 7 1013.2 1013.1 0.0
31/06:00pm 30.3 31.7 19.6 52 7.0 NNE 11 17 6 9 1012.8 1012.7 0.0
31/05:30pm 32.5 33.9 17.9 41 9.4 ENE 7 13 4 7 1012.5 1012.4 0.0
31/05:00pm 33.6 33.7 15.6 34 11.3 ENE 9 15 5 8 1012.3 1012.2 0.0
31/04:30pm 33.8 33.6 15.7 33 11.3 ESE 11 19 6 10 1012.1 1012.0 0.0
31/04:00pm 34.1 33.8 15.5 32 11.6 E 11 20 6 11 1011.9 1011.8 0.0
31/03:30pm 33.9 32.8 15.4 33 11.5 E 15 22 8 12 1012.1 1012.0 0.0
31/03:00pm 33.9 33.2 16.3 35 11.1 ESE 15 26 8 14 1012.3 1012.2 0.0
31/02:30pm 33.6 33.1 16.9 37 10.6 E 15 24 8 13 1012.7 1012.6 0.0
31/02:00pm 33.2 32.0 16.1 35 10.8 ESE 17 22 9 12 1013.2 1013.1 0.0
31/01:30pm 33.5 32.8 16.4 36 10.8 E 15 22 8 12 1013.7 1013.6 0.0
31/01:00pm 32.6 31.9 16.4 37 10.2 ESE 15 26 8 14 1014.4 1014.3 0.0
31/12:30pm 32.3 32.4 16.6 39 9.9 E 11 22 6 12 1014.9 1014.8 0.0
31/12:00pm 32.0 33.7 18.6 45 8.7 ENE 7 15 4 8 1015.4 1015.3 0.0
31/11:30am 31.0 32.7 19.4 50 7.6 E 9 20 5 11 1015.9 1015.8 0.0
31/11:00am 29.9 31.7 19.6 54 6.7 NNE 9 13 5 7 1016.4 1016.3 0.0
31/10:30am 28.9 30.8 19.8 58 5.9 ESE 9 15 5 8 1016.6 1016.5 0.0
31/10:00am 28.0 30.6 20.0 61 5.2 ENE 6 11 3 6 1016.9 1016.8 0.0
31/09:30am 26.3 29.0 20.2 69 4.0 SSE 6 9 3 5 1017.2 1017.1 0.0
31/09:00am 24.8 27.5 20.7 78 2.7 SSE 7 9 4 5 1017.1 1017.0 0.0
31/08:30am 22.9 26.9 21.4 91 1.0 ENE 2 4 1 2 1016.5 1016.4 0.0
31/08:00am 19.9 23.6 19.9 100 0.0 CALM 0 0 0 0 1016.4 1016.3 0.0
31/07:30am 17.6 20.2 17.6 100 0.0 CALM 0 0 0 0 1016.4 1016.3 0.0
31/07:00am 16.7 18.9 16.5 99 0.1 CALM 0 0 0 0 1016.3 1016.2 0.0

Latest Capital City Observations: Canberra | Sydney | Melbourne | Brisbane | Adelaide | Perth | Hobart | Darwin

Other formats

Comma delimited format used in spreadsheet applications
http://www.bom.gov.au/fwo/IDD60901/IDD60901.95121.axf

JavaScript Object Notation format (JSON) in row-major order
http://www.bom.gov.au/fwo/IDD60901/IDD60901.95121.json

Data quality

Most of these data are generated automatically and are frequently updated. Quality checks on data are not normally performed. It is possible for incorrect values to appear. Refer to information at About Latest Weather Observations and please check the disclaimer before using these data.